Time;durP1;ratioP1;P1;durP2;ratioP2;P2;SDS_P1;SDS_P2;PMS_P1;PMS_P2;Temp;Humidity;BMP_temperature;BMP_pressure;BME280_temperature;BME280_humidity;BME280_pressure;Samples;Min_cycle;Max_cycle;Signal;HPM_P1;HPM_P2
2020/12/21 03:47:13;;;;;;;18.88;12.50;;;3.50;99.90;;;;;;5463445;23;94355;-78
2020/12/21 03:49:39;;;;;;;18.88;14.25;;;3.50;99.90;;;;;;4931917;28;93085;-78
2020/12/21 03:52:04;;;;;;;18.70;12.43;;;3.60;99.90;;;;;;4938279;28;91973;-79
2020/12/21 03:54:30;;;;;;;18.27;11.48;;;3.70;99.90;;;;;;4935495;28;91822;-78
2020/12/21 03:56:56;;;;;;;20.50;12.05;;;3.70;99.90;;;;;;4941333;28;92291;-76
2020/12/21 03:59:21;;;;;;;18.40;10.75;;;3.70;99.90;;;;;;4935405;28;92231;-78
2020/12/21 04:01:47;;;;;;;18.40;11.27;;;3.60;99.90;;;;;;4940105;28;91812;-77
2020/12/21 04:04:13;;;;;;;19.02;12.30;;;3.50;99.90;;;;;;4925599;28;92277;-79
2020/12/21 04:06:39;;;;;;;15.57;10.00;;;3.50;99.90;;;;;;4939611;28;94166;-79
2020/12/21 04:09:04;;;;;;;21.17;11.95;;;3.50;99.90;;;;;;4934682;28;93889;-79
2020/12/21 04:11:30;;;;;;;15.73;11.38;;;3.50;99.90;;;;;;4934878;28;92161;-79
2020/12/21 04:13:56;;;;;;;20.00;12.95;;;3.70;99.90;;;;;;4934834;28;92034;-77
2020/12/21 04:16:22;;;;;;;19.55;10.93;;;3.60;99.90;;;;;;4939512;28;92287;-77
2020/12/21 04:18:48;;;;;;;16.85;11.50;;;;;;;;;;4942805;28;91920;-78
2020/12/21 04:21:14;;;;;;;18.02;11.32;;;3.70;99.90;;;;;;4943688;28;91879;-78
2020/12/21 04:23:40;;;;;;;17.48;12.55;;;3.90;99.90;;;;;;4919212;28;91351;-79
2020/12/21 04:26:07;;;;;;;18.55;11.15;;;4.00;99.90;;;;;;4940625;28;92308;-78
2020/12/21 04:28:33;;;;;;;18.83;12.45;;;4.10;99.90;;;;;;4935815;28;92315;-79
2020/12/21 04:31:06;;;;;;;18.15;10.75;;;4.10;99.90;;;;;;4938612;28;92994;-78
2020/12/21 04:33:33;;;;;;;16.30;11.93;;;4.40;99.90;;;;;;4949114;28;91813;-79
2020/12/21 04:35:59;;;;;;;17.85;11.80;;;4.20;99.90;;;;;;4940621;28;91540;-79
2020/12/21 04:38:25;;;;;;;15.25;10.35;;;4.20;99.90;;;;;;4937875;28;91652;-77
2020/12/21 04:41:00;;;;;;;18.30;10.20;;;4.10;99.90;;;;;;4942398;28;92065;-78
2020/12/21 04:43:25;;;;;;;17.17;10.75;;;3.90;99.90;;;;;;4933677;28;91886;-77
2020/12/21 04:45:55;;;;;;;17.77;10.73;;;3.90;99.90;;;;;;4943252;28;92260;-79
2020/12/21 04:48:24;;;;;;;17.15;11.13;;;3.70;99.90;;;;;;4924609;28;93082;-77
2020/12/21 04:50:53;;;;;;;15.63;9.10;;;3.50;99.90;;;;;;4942396;28;91891;-78
2020/12/21 04:53:20;;;;;;;16.40;10.25;;;3.30;99.90;;;;;;4924849;28;91805;-78
2020/12/21 04:55:46;;;;;;;16.48;10.60;;;3.40;99.90;;;;;;4933784;28;93222;-78
2020/12/21 04:58:12;;;;;;;16.60;10.55;;;3.20;99.90;;;;;;4943752;28;94106;-78
2020/12/21 05:00:38;;;;;;;20.13;10.73;;;3.10;99.90;;;;;;4941504;28;91520;-79
2020/12/21 05:03:06;;;;;;;16.02;10.50;;;2.90;99.90;;;;;;4928534;28;92323;-78
2020/12/21 05:05:40;;;;;;;17.00;11.05;;;2.40;99.90;;;;;;4937342;28;92210;-77
2020/12/21 05:08:17;;;;;;;18.48;10.50;;;2.90;99.90;;;;;;4927984;28;92531;-78
2020/12/21 05:11:04;;;;;;;18.02;10.98;;;2.80;99.90;;;;;;4933165;28;91788;-77
2020/12/21 05:13:32;;;;;;;20.98;11.77;;;2.80;99.90;;;;;;4938301;28;91974;-79
2020/12/21 05:15:58;;;;;;;17.90;10.45;;;2.70;99.90;;;;;;4945543;28;92224;-79
2020/12/21 05:18:34;;;;;;;16.70;11.63;;;2.70;99.90;;;;;;4946782;28;92532;-78
2020/12/21 05:21:06;;;;;;;17.25;10.85;;;2.70;99.90;;;;;;4941305;28;92906;-79
2020/12/21 05:23:33;;;;;;;17.67;10.95;;;2.90;99.90;;;;;;4928140;28;91791;-79
2020/12/21 05:26:04;;;;;;;18.45;11.75;;;2.80;99.90;;;;;;4931478;28;92020;-80
2020/12/21 05:28:37;;;;;;;18.80;9.75;;;2.80;99.90;;;;;;4926133;28;91870;-79
2020/12/21 05:31:05;;;;;;;16.80;11.02;;;2.80;99.90;;;;;;4944607;28;91560;-79
2020/12/21 05:33:31;;;;;;;19.17;11.63;;;2.90;99.90;;;;;;4944071;28;91677;-78
2020/12/21 05:36:09;;;;;;;18.45;11.60;;;3.10;99.90;;;;;;4931446;28;92700;-78
2020/12/21 05:38:36;;;;;;;16.90;10.68;;;2.90;99.90;;;;;;4935367;28;92021;-80
2020/12/21 05:41:16;;;;;;;17.50;11.13;;;2.80;99.90;;;;;;4907796;28;91908;-80
2020/12/21 05:43:42;;;;;;;21.08;12.35;;;2.80;99.90;;;;;;4928173;28;91966;-78
2020/12/21 05:46:10;;;;;;;22.02;12.30;;;2.70;99.90;;;;;;4926121;28;93299;-78
2020/12/21 05:48:38;;;;;;;21.80;11.65;;;2.80;99.90;;;;;;4936018;28;93116;-79
2020/12/21 05:51:06;;;;;;;18.48;10.35;;;2.80;99.90;;;;;;4935946;28;91901;-80
2020/12/21 05:53:39;;;;;;;21.80;11.60;;;2.80;99.90;;;;;;4928087;28;91699;-79
2020/12/21 05:56:05;;;;;;;21.67;11.98;;;2.80;99.90;;;;;;4936330;28;92262;-80
2020/12/21 05:58:33;;;;;;;19.35;10.48;;;2.80;99.90;;;;;;4930201;28;92129;-79
2020/12/21 06:01:04;;;;;;;18.58;12.40;;;2.90;99.90;;;;;;4924210;28;91878;-77
2020/12/21 06:03:51;;;;;;;12.13;8.07;;;2.60;99.90;;;;;;4928740;28;91368;-78
2020/12/21 06:06:21;;;;;;;17.70;9.35;;;2.60;99.90;;;;;;4930639;28;92338;-79
2020/12/21 06:08:50;;;;;;;24.70;12.43;;;2.90;99.90;;;;;;4933964;28;92397;-78
2020/12/21 06:11:39;;;;;;;19.45;10.77;;;2.50;99.90;;;;;;4942431;28;93808;-80
2020/12/21 06:14:15;;;;;;;22.13;10.85;;;2.50;99.90;;;;;;4941334;28;92063;-78
2020/12/21 06:16:41;;;;;;;20.67;11.90;;;2.70;99.90;;;;;;4943230;28;91565;-79
2020/12/21 06:19:11;;;;;;;17.88;12.10;;;2.60;99.90;;;;;;4932121;28;92190;-77
2020/12/21 06:21:43;;;;;;;18.48;10.80;;;2.50;99.90;;;;;;4934504;28;92038;-80
2020/12/21 06:24:16;;;;;;;18.42;12.35;;;2.60;99.90;;;;;;4943739;28;91611;-79
2020/12/21 06:26:42;;;;;;;22.55;13.20;;;;;;;;;;4942573;28;91787;-80
2020/12/21 06:29:22;;;;;;;21.88;11.90;;;2.50;99.90;;;;;;4943320;28;92859;-79
2020/12/21 06:32:01;;;;;;;20.58;12.85;;;2.70;99.90;;;;;;4939887;28;92557;-79
2020/12/21 06:34:29;;;;;;;17.80;11.25;;;2.50;99.90;;;;;;4928624;28;91934;-77
2020/12/21 06:37:16;;;;;;;21.15;13.77;;;2.60;99.90;;;;;;4940444;28;93016;-77
2020/12/21 06:39:42;;;;;;;18.23;11.70;;;2.50;99.90;;;;;;4937031;28;92186;-79
2020/12/21 06:42:10;;;;;;;18.15;12.18;;;2.30;99.90;;;;;;4934749;28;92080;-79
2020/12/21 06:44:39;;;;;;;22.40;13.98;;;2.40;99.90;;;;;;4941683;28;91922;-78
2020/12/21 06:47:11;;;;;;;23.65;13.68;;;3.00;99.90;;;;;;4934684;28;92790;-79
2020/12/21 06:49:38;;;;;;;23.45;13.35;;;2.40;99.90;;;;;;4941145;28;92020;-79
2020/12/21 06:52:04;;;;;;;24.88;13.50;;;2.40;99.90;;;;;;4934063;28;91917;-77
2020/12/21 06:54:30;;;;;;;20.83;12.48;;;2.50;99.90;;;;;;4933365;28;91242;-79
2020/12/21 06:56:56;;;;;;;25.35;12.77;;;2.40;99.90;;;;;;4941182;28;92356;-79
2020/12/21 06:59:24;;;;;;;19.35;13.32;;;2.50;99.90;;;;;;4929210;28;91992;-79
2020/12/21 07:01:51;;;;;;;22.08;13.25;;;2.40;99.90;;;;;;4933894;28;92616;-77
2020/12/21 07:04:19;;;;;;;26.08;14.57;;;2.40;99.90;;;;;;4940149;28;91684;-78
2020/12/21 07:06:46;;;;;;;19.10;13.57;;;2.40;99.90;;;;;;4936161;28;93248;-80
2020/12/21 07:09:13;;;;;;;24.67;14.05;;;2.40;99.90;;;;;;4934348;28;91994;-78
2020/12/21 07:11:40;;;;;;;27.75;15.10;;;2.30;99.90;;;;;;4940858;28;92004;-77
2020/12/21 07:14:06;;;;;;;21.50;13.25;;;2.50;99.90;;;;;;4939703;28;92169;-79
2020/12/21 07:16:32;;;;;;;22.50;15.18;;;2.70;99.90;;;;;;4936310;28;92259;-79
2020/12/21 07:18:58;;;;;;;27.52;15.05;;;2.60;99.90;;;;;;4941319;28;92979;-78
2020/12/21 07:21:24;;;;;;;24.02;14.35;;;2.70;99.90;;;;;;4938865;28;91956;-79
2020/12/21 07:23:50;;;;;;;23.13;12.68;;;2.80;99.90;;;;;;4937021;28;91888;-80
2020/12/21 07:26:16;;;;;;;22.50;12.52;;;2.90;99.90;;;;;;4931715;28;92896;-78
2020/12/21 07:28:47;;;;;;;22.98;13.50;;;3.10;99.90;;;;;;4935263;28;93269;-79
2020/12/21 07:31:20;;;;;;;22.55;13.82;;;3.20;99.90;;;;;;4939745;28;92124;-79
2020/12/21 07:33:55;;;;;;;20.27;13.20;;;3.60;99.90;;;;;;4935788;28;91646;-79
2020/12/21 07:36:26;;;;;;;22.98;15.45;;;3.30;99.90;;;;;;4929788;28;92337;-81
2020/12/21 07:38:52;;;;;;;22.05;12.70;;;3.40;99.90;;;;;;4931996;28;92067;-79
2020/12/21 07:41:23;;;;;;;21.38;13.35;;;3.30;99.90;;;;;;4937800;28;91630;-78
2020/12/21 07:44:01;;;;;;;27.10;13.77;;;3.30;99.90;;;;;;4927216;28;90918;-80
2020/12/21 07:46:35;;;;;;;26.95;12.95;;;3.30;99.90;;;;;;4928848;28;92747;-79
2020/12/21 07:49:01;;;;;;;21.60;12.32;;;3.30;99.90;;;;;;4930795;28;92366;-77
2020/12/21 07:51:27;;;;;;;22.67;11.27;;;3.30;99.90;;;;;;4933511;28;92821;-77
2020/12/21 07:53:53;;;;;;;19.52;12.88;;;3.40;99.90;;;;;;4930123;28;92073;-78
2020/12/21 07:56:18;;;;;;;26.23;12.20;;;3.50;99.90;;;;;;4937329;28;92152;-79
2020/12/21 07:58:47;;;;;;;31.10;15.15;;;3.70;99.90;;;;;;4937786;28;91631;-77
2020/12/21 08:01:21;;;;;;;32.70;16.98;;;3.80;99.90;;;;;;4929550;28;92079;-79
2020/12/21 08:03:51;;;;;;;25.63;13.95;;;3.90;99.90;;;;;;4938676;28;92034;-77
2020/12/21 08:06:18;;;;;;;34.63;16.08;;;4.00;99.90;;;;;;4922954;28;93122;-78
2020/12/21 08:08:44;;;;;;;41.38;16.02;;;4.20;99.90;;;;;;4941066;28;91420;-77
2020/12/21 08:11:15;;;;;;;29.50;15.88;;;4.60;99.90;;;;;;4942150;28;92117;-78
2020/12/21 08:13:51;;;;;;;30.65;15.20;;;4.50;99.90;;;;;;4942644;28;92771;-78
2020/12/21 08:16:24;;;;;;;36.10;16.13;;;4.80;99.90;;;;;;4942913;28;93230;-79
2020/12/21 08:18:53;;;;;;;28.98;13.95;;;4.80;99.90;;;;;;4923163;28;95030;-77
2020/12/21 08:21:25;;;;;;;27.48;15.25;;;5.00;99.90;;;;;;4942011;28;92062;-79
2020/12/21 08:23:56;;;;;;;26.88;15.63;;;5.10;99.90;;;;;;4933083;28;92006;-78
2020/12/21 08:26:23;;;;;;;23.17;12.98;;;5.20;99.90;;;;;;4931970;28;92582;-78
2020/12/21 08:28:50;;;;;;;18.55;11.65;;;5.30;99.90;;;;;;4936259;28;91946;-79
2020/12/21 08:31:21;;;;;;;23.35;12.18;;;5.30;99.90;;;;;;4936649;28;91990;-79
2020/12/21 08:34:06;;;;;;;17.65;11.73;;;5.40;99.90;;;;;;4929144;28;91322;-78
2020/12/21 08:36:38;;;;;;;18.90;11.85;;;5.40;99.90;;;;;;4939247;28;92626;-78
2020/12/21 08:39:24;;;;;;;19.13;11.25;;;5.40;99.90;;;;;;4944551;28;92341;-80
2020/12/21 08:41:58;;;;;;;19.13;12.73;;;5.30;99.90;;;;;;4933095;28;92812;-80
2020/12/21 08:44:28;;;;;;;21.02;13.38;;;5.30;99.90;;;;;;4935422;28;92000;-80
2020/12/21 08:46:56;;;;;;;21.92;12.73;;;5.20;99.90;;;;;;4945064;28;92635;-80
2020/12/21 08:49:22;;;;;;;23.05;13.43;;;5.20;99.90;;;;;;4946398;28;91628;-81
2020/12/21 08:51:48;;;;;;;18.95;12.13;;;5.20;99.90;;;;;;4945521;28;92459;-81
2020/12/21 08:54:15;;;;;;;19.25;12.32;;;5.30;99.90;;;;;;4940941;28;91890;-82
2020/12/21 08:56:46;;;;;;;20.58;13.40;;;5.30;99.90;;;;;;4939852;28;91675;-79
2020/12/21 08:59:12;;;;;;;21.42;12.82;;;5.30;99.90;;;;;;4945340;28;91457;-80
2020/12/21 09:01:41;;;;;;;18.38;10.50;;;5.30;99.90;;;;;;4941647;28;91969;-78
2020/12/21 09:04:07;;;;;;;17.98;10.43;;;5.20;99.90;;;;;;4937199;28;91895;-77
2020/12/21 09:06:33;;;;;;;21.20;11.18;;;5.30;99.90;;;;;;4943060;28;93184;-79
2020/12/21 09:08:59;;;;;;;19.27;11.98;;;;;;;;;;4936546;28;92312;-77
2020/12/21 09:11:26;;;;;;;21.10;12.02;;;5.40;99.90;;;;;;4931431;28;91947;-77
2020/12/21 09:13:52;;;;;;;19.13;11.95;;;5.40;99.90;;;;;;4925268;28;91996;-78
2020/12/21 09:16:23;;;;;;;17.48;11.60;;;5.50;99.90;;;;;;4936477;28;92479;-78
2020/12/21 09:18:49;;;;;;;;;;;5.60;99.90;;;;;;4938454;28;92038;-78
2020/12/21 09:21:29;;;;;;;12.98;9.60;;;5.60;99.90;;;;;;4944443;28;91863;-79
2020/12/21 09:24:01;;;;;;;16.98;10.38;;;5.80;99.90;;;;;;4937765;28;91130;-79
2020/12/21 09:26:28;;;;;;;18.67;10.25;;;5.90;99.90;;;;;;4936763;28;92292;-77
2020/12/21 09:28:54;;;;;;;15.68;10.43;;;6.10;99.90;;;;;;4937591;28;91978;-78
2020/12/21 09:31:22;;;;;;;16.33;11.10;;;6.30;99.90;;;;;;4940371;28;92267;-78
2020/12/21 09:33:49;;;;;;;16.05;10.50;;;6.30;99.90;;;;;;4938401;28;92214;-78
2020/12/21 09:36:16;;;;;;;16.42;9.73;;;6.50;99.90;;;;;;4927033;28;92495;-77
2020/12/21 09:38:42;;;;;;;15.50;10.32;;;6.60;99.90;;;;;;4935340;28;93528;-77
2020/12/21 09:41:16;;;;;;;16.73;10.13;;;;;;;;;;4924384;28;92071;-80
2020/12/21 09:43:43;;;;;;;15.88;10.88;;;6.60;99.90;;;;;;4934041;28;91962;-78
2020/12/21 09:46:09;;;;;;;17.30;11.07;;;;;;;;;;4940383;28;93140;-77
2020/12/21 09:48:36;;;;;;;18.20;11.60;;;6.90;99.90;;;;;;4942871;28;95016;-77
2020/12/21 09:51:01;;;;;;;19.00;12.85;;;7.00;99.90;;;;;;4941591;28;91993;-78
2020/12/21 09:53:27;;;;;;;21.33;13.23;;;7.10;99.90;;;;;;4924759;28;93106;-78
2020/12/21 09:55:53;;;;;;;18.40;12.80;;;;;;;;;;4942540;28;93107;-80
2020/12/21 09:58:19;;;;;;;19.65;12.43;;;7.30;99.90;;;;;;4945126;28;93341;-77
2020/12/21 10:00:46;;;;;;;21.80;13.02;;;7.30;99.90;;;;;;4937321;28;91786;-79
2020/12/21 10:03:12;;;;;;;24.20;13.75;;;7.40;99.90;;;;;;4919949;28;92193;-79
2020/12/21 10:05:38;;;;;;;20.20;13.88;;;7.50;99.90;;;;;;4944833;28;92843;-78
2020/12/21 10:08:03;;;;;;;19.67;13.18;;;7.50;99.90;;;;;;4938243;28;92005;-79
2020/12/21 10:10:29;;;;;;;20.30;12.50;;;7.60;99.90;;;;;;4941283;28;92103;-78
2020/12/21 10:12:55;;;;;;;22.45;13.23;;;7.60;99.90;;;;;;4943531;28;91410;-77
2020/12/21 10:15:21;;;;;;;21.45;14.02;;;7.70;99.90;;;;;;4945756;28;92683;-80
2020/12/21 10:17:47;;;;;;;22.33;14.88;;;7.80;99.90;;;;;;4917130;28;94353;-80
2020/12/21 10:20:12;;;;;;;30.65;16.70;;;7.80;99.90;;;;;;4927195;28;92869;-79
2020/12/21 10:22:38;;;;;;;31.13;17.13;;;7.80;99.90;;;;;;4939882;28;92261;-78
2020/12/21 10:25:04;;;;;;;24.90;16.15;;;7.90;99.90;;;;;;4941081;28;92274;-79
2020/12/21 10:27:30;;;;;;;23.85;15.38;;;7.80;99.90;;;;;;4935721;28;92696;-79
2020/12/21 10:29:56;;;;;;;22.42;14.57;;;7.80;99.90;;;;;;4937309;28;92066;-78
2020/12/21 10:32:23;;;;;;;17.48;12.38;;;7.90;99.90;;;;;;4938535;28;92072;-78
2020/12/21 10:34:48;;;;;;;20.40;12.52;;;7.90;99.90;;;;;;4940582;28;92034;-77
2020/12/21 10:37:14;;;;;;;22.45;13.98;;;7.90;99.90;;;;;;4935544;28;91712;-77
2020/12/21 10:39:40;;;;;;;20.65;13.90;;;7.90;99.90;;;;;;4942646;28;91967;-78
2020/12/21 10:42:06;;;;;;;19.83;13.63;;;7.90;99.90;;;;;;4935058;28;92210;-78
2020/12/21 10:44:32;;;;;;;20.98;13.98;;;8.00;99.90;;;;;;4918130;28;94296;-78
2020/12/21 10:46:58;;;;;;;17.30;12.30;;;8.10;99.90;;;;;;4940164;28;92310;-77
2020/12/21 10:49:24;;;;;;;20.23;12.18;;;8.10;99.90;;;;;;4941430;28;92058;-78
2020/12/21 10:51:50;;;;;;;21.40;14.23;;;8.30;99.90;;;;;;4933213;28;91942;-78
2020/12/21 10:54:16;;;;;;;19.88;13.82;;;8.40;99.90;;;;;;4919030;28;93923;-77
2020/12/21 10:56:41;;;;;;;18.80;14.27;;;8.40;99.90;;;;;;4930639;28;92003;-78
2020/12/21 10:59:07;;;;;;;19.58;14.27;;;8.50;99.90;;;;;;4927843;28;92016;-78
2020/12/21 11:01:33;;;;;;;20.15;13.65;;;8.60;99.90;;;;;;4935505;28;91246;-79
2020/12/21 11:03:59;;;;;;;20.83;13.20;;;8.60;99.90;;;;;;4940603;28;92306;-78
2020/12/21 11:06:25;;;;;;;19.50;13.35;;;8.70;99.90;;;;;;4940589;28;92006;-78
2020/12/21 11:08:52;;;;;;;20.98;13.07;;;8.80;99.90;;;;;;4941072;28;92790;-79
2020/12/21 11:11:27;;;;;;;20.77;13.98;;;8.90;99.60;;;;;;4940616;28;92057;-77
2020/12/21 11:13:54;;;;;;;18.88;14.00;;;8.90;99.30;;;;;;4940288;28;92788;-77
2020/12/21 11:16:20;;;;;;;18.90;13.32;;;9.00;99.30;;;;;;4933996;28;91984;-77
2020/12/21 11:18:47;;;;;;;19.88;13.68;;;9.10;98.90;;;;;;4929271;28;91995;-78
2020/12/21 11:21:13;;;;;;;19.05;13.27;;;;;;;;;;4932816;28;91918;-76
2020/12/21 11:23:40;;;;;;;22.35;13.38;;;9.20;97.90;;;;;;4923267;28;94267;-79
2020/12/21 11:26:05;;;;;;;22.63;15.25;;;9.20;97.90;;;;;;4925135;28;92443;-82
2020/12/21 11:28:31;;;;;;;17.92;13.10;;;9.20;98.20;;;;;;4936141;28;91810;-79
2020/12/21 11:30:57;;;;;;;20.95;13.70;;;9.30;97.90;;;;;;4940324;28;92094;-78
2020/12/21 11:33:23;;;;;;;20.35;14.32;;;9.40;97.10;;;;;;4940099;28;93227;-79
2020/12/21 11:35:48;;;;;;;21.45;14.15;;;9.20;97.30;;;;;;4934470;28;92272;-79
2020/12/21 11:38:15;;;;;;;22.85;16.50;;;9.20;97.60;;;;;;4935949;28;92067;-78
2020/12/21 11:40:42;;;;;;;22.90;16.80;;;9.20;97.30;;;;;;4937975;28;92119;-82
2020/12/21 11:43:08;;;;;;;23.05;16.40;;;9.20;97.60;;;;;;4932556;28;92395;-80
2020/12/21 11:45:33;;;;;;;26.20;16.58;;;9.10;98.00;;;;;;4930607;28;91942;-79
2020/12/21 11:47:59;;;;;;;22.25;15.57;;;9.00;98.20;;;;;;4940392;28;91995;-80
2020/12/21 11:50:25;;;;;;;23.95;16.58;;;9.00;98.60;;;;;;4939320;28;91345;-77
2020/12/21 11:52:50;;;;;;;20.42;13.90;;;8.90;98.90;;;;;;4930152;28;92289;-78
2020/12/21 11:55:16;;;;;;;24.17;15.63;;;8.80;99.00;;;;;;4924616;28;91914;-78
2020/12/21 11:57:42;;;;;;;22.20;14.98;;;8.70;99.40;;;;;;4937954;28;92882;-77
2020/12/21 12:00:07;;;;;;;20.58;14.90;;;8.60;99.40;;;;;;4938070;28;91974;-79
2020/12/21 12:02:50;;;;;;;21.67;14.57;;;8.60;99.60;;;;;;4940241;28;92255;-79
2020/12/21 12:05:17;;;;;;;19.88;15.25;;;8.40;99.90;;;;;;4935472;28;91924;-79
2020/12/21 12:07:43;;;;;;;19.85;13.18;;;8.40;99.90;;;;;;4943637;28;92114;-78
2020/12/21 12:10:09;;;;;;;23.38;14.40;;;8.30;99.90;;;;;;4942959;28;92539;-77
2020/12/21 12:12:35;;;;;;;22.05;14.43;;;8.20;99.90;;;;;;4936723;28;91937;-78
2020/12/21 12:15:01;;;;;;;20.40;14.13;;;8.20;99.90;;;;;;4930133;28;92815;-79
2020/12/21 12:17:27;;;;;;;21.42;14.20;;;8.20;99.90;;;;;;4934611;28;91961;-78
2020/12/21 12:19:53;;;;;;;23.15;15.07;;;8.20;99.90;;;;;;4941564;28;91878;-79
2020/12/21 12:22:19;;;;;;;25.48;15.85;;;8.20;99.90;;;;;;4929070;28;94236;-77
2020/12/21 12:24:45;;;;;;;26.15;15.75;;;8.20;99.90;;;;;;4934504;28;93373;-77
2020/12/21 12:27:11;;;;;;;24.88;16.40;;;8.20;99.90;;;;;;4931079;28;91274;-77
2020/12/21 12:29:37;;;;;;;30.02;17.35;;;8.20;99.90;;;;;;4932133;28;92081;-77
2020/12/21 12:32:03;;;;;;;29.02;15.85;;;8.20;99.90;;;;;;4933163;28;92722;-79
2020/12/21 12:34:29;;;;;;;23.13;14.30;;;8.20;99.90;;;;;;4933949;28;92719;-79
2020/12/21 12:36:54;;;;;;;21.90;14.10;;;8.20;99.90;;;;;;4923253;28;91920;-78
2020/12/21 12:39:20;;;;;;;19.73;13.60;;;8.20;99.90;;;;;;4937987;28;91395;-77
2020/12/21 12:41:46;;;;;;;18.30;13.57;;;8.20;99.90;;;;;;4920880;28;92337;-78
2020/12/21 12:44:12;;;;;;;20.55;13.98;;;8.10;99.90;;;;;;4932840;28;92056;-77
2020/12/21 12:46:38;;;;;;;19.73;13.15;;;8.00;99.90;;;;;;4931308;28;93152;-78
2020/12/21 12:49:06;;;;;;;17.75;12.07;;;8.00;99.90;;;;;;4925146;28;91895;-78
2020/12/21 12:51:33;;;;;;;17.73;12.10;;;7.90;99.90;;;;;;4941061;28;92035;-78
2020/12/21 12:53:58;;;;;;;19.30;13.60;;;7.80;99.90;;;;;;4937006;28;92429;-76
2020/12/21 12:56:24;;;;;;;18.75;13.60;;;7.70;99.90;;;;;;4939801;28;91995;-78
2020/12/21 12:58:50;;;;;;;18.45;12.80;;;7.70;99.90;;;;;;4941968;28;92075;-78
2020/12/21 13:01:16;;;;;;;18.00;12.98;;;7.60;99.90;;;;;;4937269;28;92344;-78
2020/12/21 13:03:46;;;;;;;21.48;13.60;;;7.50;99.90;;;;;;4932726;28;92947;-77
2020/12/21 13:06:11;;;;;;;20.13;13.52;;;7.40;99.90;;;;;;4942549;28;91985;-79
2020/12/21 13:08:38;;;;;;;20.65;13.05;;;7.30;99.90;;;;;;4942017;28;92113;-78
2020/12/21 13:11:03;;;;;;;22.23;14.00;;;7.20;99.90;;;;;;4942193;28;93299;-78
2020/12/21 13:13:29;;;;;;;19.67;12.77;;;7.20;99.90;;;;;;4935352;28;92447;-76
2020/12/21 13:15:55;;;;;;;23.75;14.68;;;7.10;99.90;;;;;;4936818;28;91857;-77
2020/12/21 13:18:21;;;;;;;22.83;14.80;;;6.90;99.90;;;;;;4931440;28;92069;-78
2020/12/21 13:20:47;;;;;;;26.45;15.48;;;6.80;99.90;;;;;;4926562;28;92130;-79
2020/12/21 13:23:12;;;;;;;23.38;14.10;;;6.80;99.90;;;;;;4935540;28;91962;-77
2020/12/21 13:25:38;;;;;;;23.75;14.52;;;6.80;99.90;;;;;;4936830;28;92028;-78
2020/12/21 13:28:04;;;;;;;23.08;14.18;;;6.80;99.90;;;;;;4935693;28;91367;-78
2020/12/21 13:30:30;;;;;;;16.75;9.65;;;6.70;99.90;;;;;;4941910;28;93404;-77
2020/12/21 13:32:56;;;;;;;20.27;11.23;;;6.60;99.90;;;;;;4939469;28;92148;-78
2020/12/21 13:35:21;;;;;;;18.42;12.40;;;6.50;99.90;;;;;;4939085;28;93034;-77
2020/12/21 13:37:47;;;;;;;26.83;16.38;;;6.50;99.90;;;;;;4942301;28;92030;-79
2020/12/21 13:40:17;;;;;;;18.20;11.80;;;6.40;99.90;;;;;;4942451;28;92019;-77
2020/12/21 13:42:47;;;;;;;18.77;12.02;;;6.40;99.90;;;;;;4932521;28;92487;-78
2020/12/21 13:45:13;;;;;;;19.20;11.25;;;6.30;99.90;;;;;;4933791;28;92167;-77
2020/12/21 13:47:38;;;;;;;18.50;11.68;;;6.30;99.90;;;;;;4931913;28;92041;-79
2020/12/21 13:50:05;;;;;;;17.10;12.13;;;6.40;99.90;;;;;;4935765;28;91968;-79
2020/12/21 13:52:32;;;;;;;11.82;8.85;;;6.50;99.90;;;;;;4934653;28;92392;-77
2020/12/21 13:54:58;;;;;;;10.13;5.75;;;6.60;99.90;;;;;;4922375;28;92084;-79
2020/12/21 13:57:23;;;;;;;12.40;8.25;;;6.70;99.90;;;;;;4940065;28;92087;-79
2020/12/21 13:59:49;;;;;;;6.95;5.50;;;6.80;99.90;;;;;;4941478;28;92976;-77
2020/12/21 14:02:15;;;;;;;6.80;5.18;;;7.00;99.90;;;;;;4915748;28;94870;-79
2020/12/21 14:04:40;;;;;;;4.95;4.35;;;7.20;99.90;;;;;;4922276;28;92099;-78
2020/12/21 14:07:06;;;;;;;4.75;4.05;;;7.50;97.90;;;;;;4939251;28;91847;-78
2020/12/21 14:09:32;;;;;;;4.03;3.58;;;7.90;95.00;;;;;;4943863;28;91869;-78
2020/12/21 14:12:01;;;;;;;4.43;3.55;;;8.20;92.20;;;;;;4923574;28;94174;-79
2020/12/21 14:14:27;;;;;;;4.25;3.85;;;8.40;91.30;;;;;;4935707;28;91597;-78
2020/12/21 14:16:53;;;;;;;5.82;4.30;;;8.80;89.50;;;;;;4927503;28;91392;-78
2020/12/21 14:19:18;;;;;;;4.20;3.80;;;9.10;87.10;;;;;;4942474;28;92894;-79
2020/12/21 14:21:45;;;;;;;4.45;4.05;;;9.00;87.80;;;;;;4946836;28;92197;-78
2020/12/21 14:24:12;;;;;;;10.35;7.13;;;9.10;90.40;;;;;;4937810;28;92702;-80
2020/12/21 14:26:38;;;;;;;14.55;9.77;;;9.20;91.80;;;;;;4913469;28;92026;-78
2020/12/21 14:29:08;;;;;;;13.70;9.70;;;9.20;93.00;;;;;;4954372;28;92952;-79
2020/12/21 14:31:37;;;;;;;16.98;10.82;;;9.10;94.60;;;;;;4931853;28;92234;-77
2020/12/21 14:34:05;;;;;;;14.65;9.88;;;8.90;96.00;;;;;;4952186;28;92164;-79
2020/12/21 14:36:33;;;;;;;14.85;9.98;;;8.80;96.40;;;;;;4937152;28;91962;-78
2020/12/21 14:39:00;;;;;;;12.02;8.55;;;8.70;96.40;;;;;;4938231;28;92354;-78
2020/12/21 14:41:26;;;;;;;10.90;7.30;;;8.70;96.00;;;;;;4938582;28;92314;-78
2020/12/21 14:43:52;;;;;;;10.05;6.93;;;8.70;94.10;;;;;;4928554;28;91762;-78
2020/12/21 14:46:23;;;;;;;12.98;8.20;;;8.80;93.60;;;;;;4928535;28;91556;-78
2020/12/21 14:48:49;;;;;;;13.05;9.48;;;8.80;95.50;;;;;;4918609;28;97026;-78
2020/12/21 14:51:22;;;;;;;15.00;9.75;;;8.80;95.80;;;;;;4942659;28;92104;-78
2020/12/21 14:53:59;;;;;;;11.02;8.15;;;8.90;96.00;;;;;;4940014;28;91780;-78
2020/12/21 14:56:25;;;;;;;11.07;8.63;;;8.80;95.20;;;;;;4929864;28;92891;-78
2020/12/21 14:58:50;;;;;;;13.73;9.13;;;8.80;95.80;;;;;;4929581;28;93032;-76
2020/12/21 15:01:16;;;;;;;16.98;11.55;;;8.80;96.50;;;;;;4935936;28;92036;-77
2020/12/21 15:03:42;;;;;;;16.23;12.65;;;8.70;97.80;;;;;;4933104;28;92194;-78
2020/12/21 15:06:11;;;;;;;16.48;13.13;;;8.60;99.20;;;;;;4939023;28;91212;-77
2020/12/21 15:08:38;;;;;;;18.25;12.55;;;8.50;99.90;;;;;;4938771;28;92404;-77
2020/12/21 15:11:04;;;;;;;22.58;14.40;;;8.40;99.90;;;;;;4930539;28;91963;-76
2020/12/21 15:13:29;;;;;;;22.95;14.75;;;8.40;99.90;;;;;;4944487;28;93200;-77
2020/12/21 15:16:03;;;;;;;20.60;14.50;;;8.30;99.90;;;;;;4933927;28;92514;-77
2020/12/21 15:18:29;;;;;;;24.73;14.38;;;8.30;99.90;;;;;;4935234;28;92044;-76
2020/12/21 15:20:55;;;;;;;20.02;14.10;;;8.20;99.90;;;;;;4934148;28;92128;-77
2020/12/21 15:23:21;;;;;;;22.13;13.88;;;8.20;99.90;;;;;;4936501;28;91999;-77
2020/12/21 15:25:46;;;;;;;20.25;13.85;;;8.20;99.90;;;;;;4937581;28;92013;-78
2020/12/21 15:28:12;;;;;;;21.10;13.93;;;8.20;99.90;;;;;;4933758;28;92047;-78
2020/12/21 15:30:37;;;;;;;23.30;14.82;;;8.10;99.90;;;;;;4938674;28;91320;-77
2020/12/21 15:33:03;;;;;;;20.13;14.05;;;8.00;99.90;;;;;;4934992;28;92062;-78
2020/12/21 15:35:29;;;;;;;23.27;14.73;;;8.00;99.90;;;;;;4941362;28;92193;-78
2020/12/21 15:37:54;;;;;;;21.80;13.15;;;8.00;99.90;;;;;;4940871;28;92927;-76
2020/12/21 15:40:20;;;;;;;24.10;14.32;;;7.90;99.90;;;;;;4938927;28;92220;-77
2020/12/21 15:42:46;;;;;;;21.75;14.55;;;7.90;99.90;;;;;;4940808;28;91942;-78
2020/12/21 15:45:11;;;;;;;22.42;14.27;;;7.70;99.90;;;;;;4941218;28;92001;-77
2020/12/21 15:47:37;;;;;;;21.73;14.68;;;7.70;99.90;;;;;;4931150;28;92127;-78
2020/12/21 15:50:05;;;;;;;26.27;15.73;;;7.80;99.90;;;;;;4930569;28;92551;-77
2020/12/21 15:52:34;;;;;;;19.60;13.85;;;7.80;99.90;;;;;;4928313;28;92467;-78
2020/12/21 15:55:00;;;;;;;21.17;13.50;;;7.80;99.90;;;;;;4940129;28;91247;-78
2020/12/21 15:57:26;;;;;;;25.63;15.45;;;7.90;99.90;;;;;;4939209;28;93087;-78
2020/12/21 15:59:52;;;;;;;26.42;16.17;;;7.90;99.90;;;;;;4932273;28;92574;-78
2020/12/21 16:02:18;;;;;;;26.23;15.60;;;7.90;99.90;;;;;;4935130;28;93705;-78
2020/12/21 16:04:43;;;;;;;25.58;15.70;;;7.90;99.90;;;;;;4939197;28;92303;-78
2020/12/21 16:07:10;;;;;;;26.55;16.23;;;7.80;99.90;;;;;;4940532;28;92788;-78
2020/12/21 16:09:36;;;;;;;22.20;14.52;;;7.80;99.90;;;;;;4937845;28;92061;-78
2020/12/21 16:12:02;;;;;;;26.45;15.95;;;7.80;99.90;;;;;;4932280;28;92121;-77
2020/12/21 16:21:03;;;;;;;24.27;15.02;;;7.60;99.90;;;;;;5597893;23;94161;-77
2020/12/21 16:23:29;;;;;;;26.02;15.40;;;7.50;99.90;;;;;;4900788;28;92085;-78
2020/12/21 16:25:55;;;;;;;24.02;15.38;;;7.40;99.90;;;;;;4894315;28;92016;-79
2020/12/21 16:28:21;;;;;;;22.38;15.13;;;7.40;99.90;;;;;;4901474;28;93049;-79
2020/12/21 16:30:47;;;;;;;23.00;15.07;;;7.40;99.90;;;;;;4900589;28;93631;-79
2020/12/21 16:33:13;;;;;;;23.30;15.25;;;7.40;99.90;;;;;;4904064;28;92018;-76
2020/12/21 16:35:39;;;;;;;20.38;14.50;;;7.40;99.90;;;;;;4905216;28;91918;-77